Time;durP1;ratioP1;P1;durP2;ratioP2;P2;SDS_P1;SDS_P2;PMS_P1;PMS_P2;Temp;Humidity;BMP_temperature;BMP_pressure;BME280_temperature;BME280_humidity;BME280_pressure;Samples;Min_cycle;Max_cycle;Signal;HPM_P1;HPM_P2
2022/04/21 00:00:50;;;;;;;21.10;10.18;;;;;;;;;;5091625;28;20841;-46
2022/04/21 00:03:17;;;;;;;21.85;9.77;;;;;;;;;;5091873;28;20035;-45
2022/04/21 00:05:44;;;;;;;29.45;10.27;;;;;;;;;;5092037;28;20063;-43
2022/04/21 00:08:15;;;;;;;25.35;12.05;;;;;;;;;;5091620;28;20058;-43
2022/04/21 00:10:42;;;;;;;40.15;15.38;;;;;;;;;;5091728;28;20060;-42
2022/04/21 00:13:09;;;;;;;53.13;19.45;;;;;;;;;;5092158;28;20062;-45
2022/04/21 00:15:36;;;;;;;62.70;22.85;;;;;;;;;;5091467;28;20028;-43
2022/04/21 00:18:03;;;;;;;58.72;24.05;;;;;;;;;;5073377;28;20553;-43
2022/04/21 00:20:30;;;;;;;81.65;27.13;;;;;;;;;;5091865;28;20035;-42
2022/04/21 00:25:43;;;;;;;73.35;27.45;;;;;;;;;;5091887;28;20516;-46
2022/04/21 00:28:10;;;;;;;79.28;27.95;;;;;;;;;;5091703;28;20107;-46
2022/04/21 00:30:37;;;;;;;74.47;26.42;;;;;;;;;;5091136;28;20111;-45
2022/04/21 00:33:07;;;;;;;58.08;23.88;;;;;;;;;;5091688;28;20016;-46
2022/04/21 00:35:34;;;;;;;70.72;25.92;;;;;;;;;;5086777;28;20028;-43
2022/04/21 00:38:01;;;;;;;64.28;24.33;;;;;;;;;;5078972;28;20043;-45
2022/04/21 00:40:29;;;;;;;65.00;23.55;;;;;;;;;;5078741;28;20025;-43
2022/04/21 00:42:57;;;;;;;57.83;22.95;;;;;;;;;;5075597;28;20044;-42
2022/04/21 00:45:24;;;;;;;62.00;22.48;;;;;;;;;;5073049;28;20020;-43
2022/04/21 00:47:52;;;;;;;65.25;21.88;;;;;;;;;;5091228;28;20485;-42
2022/04/21 00:50:24;;;;;;;53.95;21.02;;;;;;;;;;5091376;28;20028;-43
2022/04/21 00:52:53;;;;;;;59.70;19.90;;;;;;;;;;5091117;28;20032;-43
2022/04/21 00:55:21;;;;;;;51.20;20.50;;;;;;;;;;5091280;28;20385;-42
2022/04/21 00:57:49;;;;;;;49.75;21.00;;;;;;;;;;5090845;28;20474;-43
2022/04/21 01:00:17;;;;;;;49.95;19.48;;;;;;;;;;5090993;28;20043;-45
2022/04/21 01:02:50;;;;;;;46.53;18.10;;;;;;;;;;5090837;28;20026;-46
2022/04/21 01:05:20;;;;;;;48.63;19.92;;;;;;;;;;5091023;28;20032;-43
2022/04/21 01:07:47;;;;;;;42.47;18.17;;;;;;;;;;5090210;28;20043;-44
2022/04/21 01:10:15;;;;;;;44.92;17.95;;;;;;;;;;5090682;28;20044;-43
2022/04/21 01:12:43;;;;;;;40.17;16.92;;;;;;;;;;5090883;28;20029;-43
2022/04/21 01:15:10;;;;;;;39.00;15.52;;;;;;;;;;5090999;28;20020;-42
2022/04/21 01:17:39;;;;;;;41.03;16.20;;;;;;;;;;5090700;28;20777;-42
2022/04/21 01:20:07;;;;;;;44.17;16.15;;;;;;;;;;5090590;28;20067;-43
2022/04/21 01:22:34;;;;;;;39.75;15.10;;;;;;;;;;5090854;28;20028;-46
2022/04/21 01:25:01;;;;;;;37.80;16.27;;;;;;;;;;5091037;28;20050;-43
2022/04/21 01:27:31;;;;;;;36.95;14.80;;;;;;;;;;5090697;28;20077;-43
2022/04/21 01:29:58;;;;;;;28.50;13.48;;;;;;;;;;5090896;28;20028;-46
2022/04/21 01:32:25;;;;;;;32.58;14.32;;;;;;;;;;5090938;28;20058;-46
2022/04/21 01:34:52;;;;;;;33.78;14.68;;;;;;;;;;5090644;28;20410;-44
2022/04/21 01:42:50;;;;;;;32.60;13.10;;;;;;;;;;5070454;28;20098;-43
2022/04/21 01:45:17;;;;;;;32.10;12.57;;;;;;;;;;5070505;28;20038;-44
2022/04/21 01:47:44;;;;;;;30.65;14.70;;;;;;;;;;5070457;28;20029;-44
2022/04/21 01:50:11;;;;;;;32.35;13.20;;;;;;;;;;5070443;28;20513;-43
2022/04/21 01:52:38;;;;;;;29.30;11.75;;;;;;;;;;5070684;28;20071;-46
2022/04/21 01:55:06;;;;;;;26.50;12.43;;;;;;;;;;5071326;28;20024;-45
2022/04/21 01:57:33;;;;;;;30.20;11.38;;;;;;;;;;5085982;28;20024;-46
2022/04/21 02:00:00;;;;;;;29.90;12.88;;;;;;;;;;5090072;28;20078;-43
2022/04/21 02:02:27;;;;;;;28.65;12.85;;;;;;;;;;5090253;28;20077;-44
2022/04/21 02:04:54;;;;;;;27.67;11.25;;;;;;;;;;5072310;28;20854;-43
2022/04/21 02:07:21;;;;;;;26.40;11.48;;;;;;;;;;5090498;28;20077;-46
2022/04/21 02:09:48;;;;;;;27.05;11.38;;;;;;;;;;5090388;28;20032;-45
2022/04/21 02:12:15;;;;;;;23.55;10.45;;;;;;;;;;5082983;28;20119;-44
2022/04/21 02:14:43;;;;;;;23.10;9.93;;;;;;;;;;5079196;28;20035;-46
2022/04/21 02:17:10;;;;;;;23.60;9.52;;;;;;;;;;5082007;28;20044;-44
2022/04/21 02:19:37;;;;;;;21.25;10.38;;;;;;;;;;5072870;28;20549;-46
2022/04/21 02:22:05;;;;;;;22.63;10.88;;;;;;;;;;5083993;28;20030;-46
2022/04/21 02:24:32;;;;;;;20.10;9.50;;;;;;;;;;5082663;28;20028;-43
2022/04/21 02:26:59;;;;;;;23.85;10.65;;;;;;;;;;5082006;28;20024;-43
2022/04/21 02:29:27;;;;;;;23.17;9.95;;;;;;;;;;5083930;28;20755;-46
2022/04/21 02:31:54;;;;;;;23.52;10.13;;;;;;;;;;5081241;28;20043;-47
2022/04/21 02:34:21;;;;;;;23.52;9.48;;;;;;;;;;5051999;28;20028;-46
2022/04/21 02:36:48;;;;;;;21.00;9.63;;;;;;;;;;5078303;28;20020;-46
2022/04/21 02:39:15;;;;;;;21.77;9.88;;;;;;;;;;5067148;28;20054;-47
2022/04/21 02:41:42;;;;;;;20.27;9.43;;;;;;;;;;5083754;28;20110;-44
2022/04/21 02:44:09;;;;;;;22.80;9.23;;;;;;;;;;5085829;28;20016;-45
2022/04/21 02:46:36;;;;;;;25.20;10.48;;;;;;;;;;5057032;28;20021;-45
2022/04/21 02:49:03;;;;;;;21.13;8.82;;;;;;;;;;5077074;28;20554;-43
2022/04/21 02:51:31;;;;;;;21.65;9.60;;;;;;;;;;5073043;28;20366;-42
2022/04/21 02:59:29;;;;;;;19.88;8.40;;;;;;;;;;5094409;28;20047;-42
2022/04/21 03:01:57;;;;;;;19.52;8.57;;;;;;;;;;5094162;28;20028;-42
2022/04/21 03:04:24;;;;;;;14.75;7.57;;;;;;;;;;5093696;28;20367;-42
2022/04/21 03:06:51;;;;;;;16.65;8.13;;;;;;;;;;5093994;28;20032;-42
2022/04/21 03:09:18;;;;;;;17.42;8.02;;;;;;;;;;5093814;28;20079;-43
2022/04/21 03:11:48;;;;;;;16.27;8.30;;;;;;;;;;5094056;28;20104;-42
2022/04/21 03:14:15;;;;;;;15.68;6.95;;;;;;;;;;5093628;28;20028;-42
2022/04/21 03:16:42;;;;;;;15.43;6.97;;;;;;;;;;5093747;28;20016;-42
2022/04/21 03:19:09;;;;;;;17.77;8.25;;;;;;;;;;5093653;28;20030;-42
2022/04/21 03:24:21;;;;;;;14.20;7.60;;;;;;;;;;5093800;28;20406;-42
2022/04/21 03:26:48;;;;;;;14.77;7.45;;;;;;;;;;5093513;28;20095;-43
2022/04/21 03:29:15;;;;;;;13.52;7.35;;;;;;;;;;5093675;28;20066;-42
2022/04/21 03:31:43;;;;;;;16.40;7.53;;;;;;;;;;5093441;28;20040;-42
2022/04/21 03:34:14;;;;;;;15.02;7.97;;;;;;;;;;5093360;28;20138;-42
2022/04/21 03:36:50;;;;;;;15.50;7.50;;;;;;;;;;5093384;28;20039;-42
2022/04/21 03:39:18;;;;;;;16.05;7.22;;;;;;;;;;5093290;28;20393;-43
2022/04/21 03:41:45;;;;;;;13.93;7.60;;;;;;;;;;5075226;28;20032;-42
2022/04/21 03:44:12;;;;;;;14.65;7.03;;;;;;;;;;5093129;28;20059;-43
2022/04/21 03:46:40;;;;;;;11.07;6.28;;;;;;;;;;5078666;28;20537;-46
2022/04/21 03:49:07;;;;;;;14.57;7.25;;;;;;;;;;5072980;28;20059;-45
2022/04/21 03:51:34;;;;;;;12.02;6.80;;;;;;;;;;5072730;28;20466;-46
2022/04/21 03:54:01;;;;;;;10.80;6.28;;;;;;;;;;5072915;28;20041;-45
2022/04/21 03:56:29;;;;;;;13.23;7.13;;;;;;;;;;5072946;28;20039;-45
2022/04/21 03:58:56;;;;;;;13.50;6.80;;;;;;;;;;5073017;28;20052;-45
2022/04/21 04:01:24;;;;;;;11.10;6.43;;;;;;;;;;5072903;28;20036;-45
2022/04/21 04:03:51;;;;;;;11.82;6.40;;;;;;;;;;5072930;28;20087;-45
2022/04/21 04:11:50;;;;;;;11.88;6.20;;;;;;;;;;5073082;28;20047;-46
2022/04/21 04:14:17;;;;;;;11.55;6.07;;;;;;;;;;5072566;28;20117;-45
2022/04/21 04:16:44;;;;;;;12.07;6.20;;;;;;;;;;5072656;28;20020;-45
2022/04/21 04:19:11;;;;;;;9.77;5.57;;;;;;;;;;5072474;28;20036;-45
2022/04/21 04:21:39;;;;;;;13.07;6.47;;;;;;;;;;5072708;28;20508;-45
2022/04/21 04:24:06;;;;;;;12.63;5.80;;;;;;;;;;5072612;28;20501;-45
2022/04/21 04:26:33;;;;;;;10.18;5.53;;;;;;;;;;5072457;28;20032;-45
2022/04/21 04:29:00;;;;;;;8.95;5.10;;;;;;;;;;5072556;28;20021;-45
2022/04/21 04:31:27;;;;;;;8.98;5.70;;;;;;;;;;5072495;28;20039;-46
2022/04/21 04:33:54;;;;;;;8.20;5.38;;;;;;;;;;5072482;28;20481;-45
2022/04/21 04:36:22;;;;;;;10.30;5.60;;;;;;;;;;5072336;28;20031;-46
2022/04/21 04:38:49;;;;;;;10.35;6.03;;;;;;;;;;5072104;28;20375;-45
2022/04/21 04:44:01;;;;;;;8.45;4.93;;;;;;;;;;5072363;28;20071;-46
2022/04/21 04:46:38;;;;;;;9.50;5.35;;;;;;;;;;5072125;28;20470;-46
2022/04/21 04:49:09;;;;;;;8.82;5.25;;;;;;;;;;5072401;28;20037;-45
2022/04/21 04:51:37;;;;;;;9.98;5.15;;;;;;;;;;5072282;28;20050;-45
2022/04/21 04:54:08;;;;;;;9.18;4.97;;;;;;;;;;5072071;28;20033;-45
2022/04/21 04:56:35;;;;;;;8.57;4.88;;;;;;;;;;5072014;28;20028;-45
2022/04/21 04:59:03;;;;;;;8.45;4.70;;;;;;;;;;5072074;28;20032;-45
2022/04/21 05:01:43;;;;;;;7.45;4.70;;;;;;;;;;5072176;28;20024;-45
2022/04/21 05:04:12;;;;;;;8.05;4.43;;;;;;;;;;5072180;28;20385;-45
2022/04/21 05:06:43;;;;;;;6.75;4.25;;;;;;;;;;5072027;28;20050;-46
2022/04/21 05:09:11;;;;;;;8.93;5.07;;;;;;;;;;5071891;28;20045;-45
2022/04/21 05:11:38;;;;;;;10.02;5.03;;;;;;;;;;5071923;28;20029;-45
2022/04/21 05:14:07;;;;;;;8.93;4.95;;;;;;;;;;5071996;28;20059;-45
2022/04/21 05:16:36;;;;;;;7.57;4.85;;;;;;;;;;5071776;28;20414;-45
2022/04/21 05:19:04;;;;;;;6.78;4.43;;;;;;;;;;5071765;28;20467;-45
2022/04/21 05:21:32;;;;;;;7.00;4.35;;;;;;;;;;5071868;28;20032;-45
2022/04/21 05:23:59;;;;;;;7.80;4.28;;;;;;;;;;5071758;28;20123;-45
2022/04/21 05:26:27;;;;;;;7.00;4.60;;;;;;;;;;5071793;28;20082;-45
2022/04/21 05:28:54;;;;;;;6.65;4.03;;;;;;;;;;5071722;28;20133;-45
2022/04/21 05:31:21;;;;;;;6.25;3.90;;;;;;;;;;5071829;28;20027;-45
2022/04/21 05:33:49;;;;;;;7.28;4.15;;;;;;;;;;5071770;28;20039;-45
2022/04/21 05:36:16;;;;;;;6.70;4.00;;;;;;;;;;5071679;28;20033;-42
2022/04/21 05:38:43;;;;;;;5.65;3.72;;;;;;;;;;5071610;28;20548;-43
2022/04/21 05:41:13;;;;;;;5.68;3.70;;;;;;;;;;5071779;28;20035;-42
2022/04/21 05:43:43;;;;;;;7.82;4.60;;;;;;;;;;5071588;28;20146;-43
2022/04/21 05:46:11;;;;;;;6.72;3.92;;;;;;;;;;5071669;28;20021;-43
2022/04/21 05:48:39;;;;;;;5.75;3.95;;;;;;;;;;5071714;28;20086;-42
2022/04/21 05:51:06;;;;;;;9.07;3.88;;;;;;;;;;5074593;28;20111;-43
2022/04/21 05:53:36;;;;;;;7.65;4.15;;;;;;;;;;5075531;28;20024;-42
2022/04/21 05:56:04;;;;;;;5.75;3.75;;;;;;;;;;5075160;28;20048;-43
2022/04/21 05:58:31;;;;;;;6.35;3.67;;;;;;;;;;5075322;28;20025;-43
2022/04/21 06:01:00;;;;;;;6.20;3.95;;;;;;;;;;5074764;28;20051;-42
2022/04/21 06:03:28;;;;;;;7.50;4.30;;;;;;;;;;5075173;28;20501;-42
2022/04/21 06:05:55;;;;;;;6.95;3.97;;;;;;;;;;5075245;28;20760;-42
2022/04/21 06:08:22;;;;;;;8.63;4.25;;;;;;;;;;5075163;28;20031;-42
2022/04/21 06:10:49;;;;;;;6.03;3.35;;;;;;;;;;5074962;28;20053;-43
2022/04/21 06:13:16;;;;;;;7.10;2.95;;;;;;;;;;5075208;28;20073;-42
2022/04/21 06:15:43;;;;;;;5.82;3.17;;;;;;;;;;5075011;28;20077;-42
2022/04/21 06:18:10;;;;;;;5.15;2.97;;;;;;;;;;5074989;28;20436;-43
2022/04/21 06:20:38;;;;;;;4.53;2.67;;;;;;;;;;5074938;28;20033;-42
2022/04/21 06:23:05;;;;;;;5.45;2.60;;;;;;;;;;5074768;28;20051;-43
2022/04/21 06:25:32;;;;;;;5.97;2.55;;;;;;;;;;5074856;28;20074;-42
2022/04/21 06:27:58;;;;;;;4.85;2.47;;;;;;;;;;5074785;28;20078;-42
2022/04/21 06:30:25;;;;;;;5.03;2.50;;;;;;;;;;5056681;28;20029;-43
2022/04/21 06:32:53;;;;;;;6.20;2.88;;;;;;;;;;5074606;28;20024;-42
2022/04/21 06:35:20;;;;;;;6.05;2.75;;;;;;;;;;5074545;28;20524;-42
2022/04/21 06:37:47;;;;;;;5.28;2.58;;;;;;;;;;5074499;28;20029;-42
2022/04/21 06:40:16;;;;;;;3.40;2.15;;;;;;;;;;5074641;28;20028;-42
2022/04/21 06:42:43;;;;;;;5.80;3.08;;;;;;;;;;5074310;28;20386;-42
2022/04/21 06:48:04;;;;;;;4.07;2.58;;;;;;;;;;5074416;28;20035;-42
2022/04/21 06:50:32;;;;;;;5.90;2.97;;;;;;;;;;5074493;28;20034;-42
2022/04/21 06:53:00;;;;;;;4.85;2.63;;;;;;;;;;5074286;28;20029;-42
2022/04/21 06:55:27;;;;;;;5.40;2.50;;;;;;;;;;5074301;28;20479;-42
2022/04/21 06:57:54;;;;;;;4.28;2.42;;;;;;;;;;5056059;28;20039;-43
2022/04/21 07:00:22;;;;;;;5.55;2.72;;;;;;;;;;5073893;28;20024;-42
2022/04/21 07:02:52;;;;;;;4.72;2.55;;;;;;;;;;5074078;28;20071;-42
2022/04/21 07:05:19;;;;;;;5.05;2.42;;;;;;;;;;5074166;28;20024;-43
2022/04/21 07:07:47;;;;;;;3.72;2.17;;;;;;;;;;5073873;28;20086;-42
2022/04/21 07:10:14;;;;;;;4.85;2.08;;;;;;;;;;5073687;28;20055;-42
2022/04/21 07:12:41;;;;;;;4.25;2.30;;;;;;;;;;5073830;28;20115;-43
2022/04/21 07:15:08;;;;;;;3.55;2.30;;;;;;;;;;5073773;28;20474;-43
2022/04/21 07:17:36;;;;;;;6.30;2.75;;;;;;;;;;5073795;28;20025;-42
2022/04/21 07:20:05;;;;;;;3.70;1.90;;;;;;;;;;5073870;28;20028;-43
2022/04/21 07:22:32;;;;;;;4.18;2.25;;;;;;;;;;5073839;28;20863;-42
2022/04/21 07:24:59;;;;;;;4.38;2.00;;;;;;;;;;5073732;28;20027;-43
2022/04/21 07:27:26;;;;;;;3.13;1.95;;;;;;;;;;5073066;28;20064;-42
2022/04/21 07:29:53;;;;;;;4.50;2.35;;;;;;;;;;5073657;28;20055;-43
2022/04/21 07:32:20;;;;;;;3.38;1.88;;;;;;;;;;5073591;28;20020;-42
2022/04/21 07:34:47;;;;;;;3.92;2.30;;;;;;;;;;5073572;28;20078;-42
2022/04/21 07:37:14;;;;;;;4.55;2.20;;;;;;;;;;5073403;28;20025;-42
2022/04/21 07:39:42;;;;;;;5.40;1.90;;;;;;;;;;5073416;28;20029;-42
2022/04/21 07:42:09;;;;;;;4.07;1.98;;;;;;;;;;5073360;28;20028;-42
2022/04/21 07:44:37;;;;;;;4.07;2.03;;;;;;;;;;5073353;28;20089;-43
2022/04/21 07:47:08;;;;;;;3.63;2.00;;;;;;;;;;5072999;28;20036;-42
2022/04/21 07:49:47;;;;;;;4.75;2.28;;;;;;;;;;5073320;28;20478;-43
2022/04/21 07:55:09;;;;;;;3.53;1.75;;;;;;;;;;5073361;28;20043;-42
2022/04/21 07:57:36;;;;;;;2.70;1.95;;;;;;;;;;5072911;28;20078;-42
2022/04/21 08:00:05;;;;;;;2.90;1.73;;;;;;;;;;5073080;28;20025;-41
2022/04/21 08:02:32;;;;;;;2.42;1.60;;;;;;;;;;5072927;28;20075;-43
2022/04/21 08:04:59;;;;;;;2.63;1.75;;;;;;;;;;5072998;28;20028;-42
2022/04/21 08:07:26;;;;;;;2.88;1.80;;;;;;;;;;5072692;28;20033;-42
2022/04/21 08:09:53;;;;;;;2.53;1.40;;;;;;;;;;5072704;28;20140;-42
2022/04/21 08:12:20;;;;;;;3.08;1.60;;;;;;;;;;5072012;28;20024;-42
2022/04/21 08:14:47;;;;;;;3.50;1.75;;;;;;;;;;5072742;28;20103;-42
2022/04/21 08:17:14;;;;;;;2.63;1.52;;;;;;;;;;5072569;28;20025;-42
2022/04/21 08:19:41;;;;;;;3.28;1.75;;;;;;;;;;5072681;28;20492;-42
2022/04/21 08:22:08;;;;;;;2.10;1.48;;;;;;;;;;5072595;28;20689;-42
2022/04/21 08:32:51;;;;;;;3.78;1.40;;;;;;;;;;5072521;28;20119;-42
2022/04/21 08:35:19;;;;;;;2.42;1.50;;;;;;;;;;5072364;28;20475;-42
2022/04/21 08:37:46;;;;;;;2.47;1.52;;;;;;;;;;5072066;28;20032;-42
2022/04/21 08:40:13;;;;;;;2.38;1.50;;;;;;;;;;5072430;28;20029;-42
2022/04/21 08:42:41;;;;;;;2.97;1.23;;;;;;;;;;5054651;28;20040;-42
2022/04/21 08:45:09;;;;;;;2.58;1.17;;;;;;;;;;5072285;28;20028;-42
2022/04/21 08:47:39;;;;;;;2.58;1.60;;;;;;;;;;5072135;28;20040;-42
2022/04/21 08:50:14;;;;;;;2.30;1.40;;;;;;;;;;5072031;28;20029;-42
2022/04/21 08:52:42;;;;;;;1.77;1.10;;;;;;;;;;5072057;28;20028;-42
2022/04/21 08:55:13;;;;;;;3.17;1.50;;;;;;;;;;5072198;28;20509;-43
2022/04/21 08:57:40;;;;;;;3.05;1.83;;;;;;;;;;5071964;28;20040;-42
2022/04/21 09:00:08;;;;;;;4.18;1.58;;;;;;;;;;5071976;28;20394;-42
2022/04/21 09:02:35;;;;;;;3.10;1.48;;;;;;;;;;5072165;28;20676;-42
2022/04/21 09:05:03;;;;;;;1.65;1.20;;;;;;;;;;5072096;28;20021;-43
2022/04/21 09:07:30;;;;;;;2.28;1.33;;;;;;;;;;5071955;28;20028;-42
2022/04/21 09:10:11;;;;;;;2.15;1.25;;;;;;;;;;5071735;28;20052;-41
2022/04/21 09:12:42;;;;;;;2.65;1.20;;;;;;;;;;5071830;28;20733;-42
2022/04/21 09:15:14;;;;;;;2.05;1.40;;;;;;;;;;5071942;28;20021;-42
2022/04/21 09:17:59;;;;;;;2.28;1.23;;;;;;;;;;5071755;28;20077;-42
2022/04/21 09:20:29;;;;;;;1.80;1.27;;;;;;;;;;5071921;28;20493;-42
2022/04/21 09:23:00;;;;;;;2.30;1.35;;;;;;;;;;5072034;28;20036;-43
2022/04/21 09:25:33;;;;;;;2.17;1.20;;;;;;;;;;5075401;28;20105;-42
2022/04/21 09:28:02;;;;;;;1.52;1.00;;;;;;;;;;5075980;28;20037;-42
2022/04/21 09:30:29;;;;;;;1.92;1.33;;;;;;;;;;5075660;28;20029;-42
2022/04/21 09:32:56;;;;;;;2.88;1.33;;;;;;;;;;5075916;28;20032;-42
2022/04/21 09:35:26;;;;;;;2.65;1.38;;;;;;;;;;5075762;28;20100;-43
2022/04/21 09:37:54;;;;;;;1.88;1.17;;;;;;;;;;5075489;28;20488;-43
2022/04/21 09:40:22;;;;;;;2.10;1.17;;;;;;;;;;5075719;28;20509;-42
2022/04/21 09:42:56;;;;;;;1.52;1.13;;;;;;;;;;5075720;28;20024;-42
2022/04/21 09:48:21;;;;;;;1.95;1.10;;;;;;;;;;5075620;28;20081;-42
2022/04/21 09:50:56;;;;;;;2.28;1.52;;;;;;;;;;5075516;28;20063;-43
2022/04/21 09:53:25;;;;;;;1.90;1.10;;;;;;;;;;5075355;28;20033;-42
2022/04/21 09:55:53;;;;;;;1.58;1.17;;;;;;;;;;5075393;28;20386;-42
2022/04/21 09:58:20;;;;;;;2.83;1.33;;;;;;;;;;5075488;28;20124;-43
2022/04/21 10:00:47;;;;;;;2.38;1.30;;;;;;;;;;5075341;28;20055;-43
2022/04/21 10:03:14;;;;;;;1.67;1.10;;;;;;;;;;5075319;28;20021;-42
2022/04/21 10:05:42;;;;;;;1.15;0.95;;;;;;;;;;5074994;28;20390;-43
2022/04/21 10:08:10;;;;;;;1.90;1.17;;;;;;;;;;5075235;28;20029;-42
2022/04/21 10:10:38;;;;;;;1.27;0.88;;;;;;;;;;5074944;28;20501;-43
2022/04/21 10:13:06;;;;;;;1.40;1.08;;;;;;;;;;5075098;28;20025;-42
2022/04/21 10:15:34;;;;;;;2.45;1.13;;;;;;;;;;5075021;28;20032;-43
2022/04/21 10:18:01;;;;;;;2.40;1.13;;;;;;;;;;5074753;28;20040;-42
2022/04/21 10:20:31;;;;;;;1.90;1.00;;;;;;;;;;5075158;28;20086;-42
2022/04/21 10:23:00;;;;;;;1.50;1.00;;;;;;;;;;5074969;28;20111;-42
2022/04/21 10:25:40;;;;;;;1.90;1.00;;;;;;;;;;5074806;28;20063;-42
2022/04/21 10:28:25;;;;;;;1.70;1.00;;;;;;;;;;5074883;28;20564;-42
2022/04/21 10:30:52;;;;;;;3.25;1.10;;;;;;;;;;5074603;28;20040;-42
2022/04/21 10:33:39;;;;;;;1.45;1.00;;;;;;;;;;5074550;28;20029;-42
2022/04/21 10:36:06;;;;;;;2.20;0.88;;;;;;;;;;5073843;28;20032;-42
2022/04/21 10:38:33;;;;;;;1.98;0.98;;;;;;;;;;5074586;28;20032;-41
2022/04/21 10:41:06;;;;;;;2.13;0.90;;;;;;;;;;5074565;28;20028;-42
2022/04/21 10:43:51;;;;;;;0.88;0.70;;;;;;;;;;5074712;28;20033;-42
2022/04/21 10:46:19;;;;;;;1.42;0.93;;;;;;;;;;5074394;28;20043;-42
2022/04/21 10:48:46;;;;;;;1.52;0.85;;;;;;;;;;5074465;28;20081;-42
2022/04/21 10:51:13;;;;;;;2.42;0.80;;;;;;;;;;5074442;28;20033;-42
2022/04/21 10:59:30;;;;;;;2.10;1.00;;;;;;;;;;5074185;28;20071;-42
2022/04/21 11:02:14;;;;;;;1.50;0.90;;;;;;;;;;5074210;28;20103;-42
2022/04/21 11:04:41;;;;;;;1.33;0.88;;;;;;;;;;5074133;28;20036;-42
2022/04/21 11:07:08;;;;;;;1.13;0.75;;;;;;;;;;5074048;28;20071;-43
2022/04/21 11:09:36;;;;;;;1.13;0.88;;;;;;;;;;5073941;28;20075;-42
2022/04/21 11:12:04;;;;;;;1.17;0.73;;;;;;;;;;5074095;28;20036;-42
2022/04/21 11:14:36;;;;;;;1.98;0.82;;;;;;;;;;5073822;28;20459;-42
2022/04/21 11:17:04;;;;;;;1.15;0.77;;;;;;;;;;5073793;28;20035;-42
2022/04/21 11:19:34;;;;;;;1.27;0.80;;;;;;;;;;5073847;28;20036;-42
2022/04/21 11:22:03;;;;;;;1.13;0.70;;;;;;;;;;5073885;28;20028;-42
2022/04/21 11:24:49;;;;;;;1.30;0.70;;;;;;;;;;5073675;28;20025;-42
2022/04/21 11:27:17;;;;;;;0.88;0.65;;;;;;;;;;5073516;28;20503;-41
2022/04/21 11:29:45;;;;;;;1.35;0.80;;;;;;;;;;5073763;28;20028;-42
2022/04/21 11:32:16;;;;;;;0.77;0.60;;;;;;;;;;5073715;28;20154;-42
2022/04/21 11:34:57;;;;;;;1.20;0.70;;;;;;;;;;5073403;28;20029;-42
2022/04/21 11:37:24;;;;;;;1.35;0.82;;;;;;;;;;5073421;28;20028;-42
2022/04/21 11:39:51;;;;;;;1.00;0.70;;;;;;;;;;5073493;28;20464;-42
2022/04/21 11:42:27;;;;;;;1.02;0.70;;;;;;;;;;5073452;28;20103;-42
2022/04/21 11:44:55;;;;;;;1.38;0.90;;;;;;;;;;5073289;28;20032;-42
2022/04/21 11:47:22;;;;;;;1.42;0.77;;;;;;;;;;5072100;28;20028;-42
2022/04/21 11:50:01;;;;;;;1.00;0.70;;;;;;;;;;5054928;28;20504;-42
2022/04/21 11:52:28;;;;;;;1.02;0.60;;;;;;;;;;5075245;28;20032;-42
2022/04/21 11:55:02;;;;;;;1.30;0.70;;;;;;;;;;5073429;28;20029;-45
2022/04/21 11:57:41;;;;;;;4.50;1.02;;;;;;;;;;5067556;28;20028;-43
2022/04/21 12:00:08;;;;;;;2.15;0.70;;;;;;;;;;5070854;28;20032;-43
2022/04/21 12:08:12;;;;;;;1.17;0.70;;;;;;;;;;5077033;28;20044;-44
2022/04/21 12:10:39;;;;;;;2.35;0.98;;;;;;;;;;5089476;28;20120;-47
2022/04/21 12:13:06;;;;;;;1.67;1.00;;;;;;;;;;5092527;28;20032;-47
2022/04/21 12:15:33;;;;;;;7.88;0.80;;;;;;;;;;5092041;28;20031;-46
2022/04/21 12:18:03;;;;;;;1.45;0.80;;;;;;;;;;5092174;28;20035;-46
2022/04/21 12:20:30;;;;;;;3.90;1.10;;;;;;;;;;5092463;28;20039;-49
2022/04/21 12:22:57;;;;;;;4.13;1.30;;;;;;;;;;5091859;28;20136;-49
2022/04/21 12:25:31;;;;;;;4.57;1.27;;;;;;;;;;5091585;28;20114;-47
2022/04/21 12:28:05;;;;;;;4.15;1.08;;;;;;;;;;5092183;28;20043;-46
2022/04/21 12:30:32;;;;;;;6.43;1.20;;;;;;;;;;5073944;28;20111;-47
2022/04/21 12:32:59;;;;;;;12.80;2.30;;;;;;;;;;5085263;28;20039;-42
2022/04/21 12:35:45;;;;;;;15.80;2.45;;;;;;;;;;5091683;28;20034;-41
2022/04/21 12:40:59;;;;;;;16.77;2.67;;;;;;;;;;5091994;28;20092;-38
2022/04/21 12:43:29;;;;;;;14.27;1.80;;;;;;;;;;5090985;28;20035;-43
2022/04/21 12:45:57;;;;;;;8.35;1.98;;;;;;;;;;5091713;28;20486;-43
2022/04/21 12:48:28;;;;;;;9.13;1.50;;;;;;;;;;5091710;28;20099;-42
2022/04/21 12:50:58;;;;;;;13.43;1.67;;;;;;;;;;5091622;28;20032;-44
2022/04/21 12:53:29;;;;;;;7.63;1.48;;;;;;;;;;5090704;28;20078;-41
2022/04/21 12:55:57;;;;;;;9.18;1.35;;;;;;;;;;5091491;28;20453;-42
2022/04/21 12:58:31;;;;;;;6.50;1.30;;;;;;;;;;5091184;28;20028;-48
2022/04/21 13:01:02;;;;;;;10.90;1.05;;;;;;;;;;5091200;28;20040;-44
2022/04/21 13:03:29;;;;;;;5.35;1.38;;;;;;;;;;5091036;28;20427;-45
2022/04/21 13:05:58;;;;;;;5.57;1.25;;;;;;;;;;5080447;28;20241;-46
2022/04/21 13:08:29;;;;;;;5.78;1.40;;;;;;;;;;5071034;28;20125;-48
2022/04/21 13:10:57;;;;;;;5.93;1.20;;;;;;;;;;5053036;28;20796;-40
2022/04/21 13:13:26;;;;;;;6.68;1.58;;;;;;;;;;5070242;28;20490;-48
2022/04/21 13:15:53;;;;;;;7.45;1.60;;;;;;;;;;5070070;28;20032;-43
2022/04/21 13:18:20;;;;;;;8.55;1.60;;;;;;;;;;5070849;28;20045;-48
2022/04/21 13:23:33;;;;;;;12.30;2.85;;;;;;;;;;5071625;28;20039;-45
2022/04/21 13:26:01;;;;;;;7.95;1.60;;;;;;;;;;5070538;28;20390;-46
2022/04/21 13:28:27;;;;;;;8.27;1.90;;;;;;;;;;5071303;28;20169;-47
2022/04/21 13:33:40;;;;;;;10.27;1.63;;;;;;;;;;5071344;28;20128;-47
2022/04/21 13:36:07;;;;;;;6.57;1.80;;;;;;;;;;5068162;28;20359;-46
2022/04/21 13:38:34;;;;;;;7.05;1.40;;;;;;;;;;5070251;28;20029;-45
2022/04/21 13:41:01;;;;;;;9.27;1.70;;;;;;;;;;5070416;28;20063;-46
2022/04/21 13:43:28;;;;;;;8.15;1.75;;;;;;;;;;5069149;28;20379;-45
2022/04/21 13:45:58;;;;;;;14.90;1.88;;;;;;;;;;5070082;28;20027;-42
2022/04/21 13:48:25;;;;;;;11.38;1.50;;;;;;;;;;5070614;28;20020;-38
2022/04/21 13:50:52;;;;;;;3.83;1.10;;;;;;;;;;5070722;28;20024;-39
2022/04/21 13:53:19;;;;;;;9.85;1.60;;;;;;;;;;5070769;28;20021;-42
2022/04/21 13:55:46;;;;;;;8.20;1.33;;;;;;;;;;5070755;28;20020;-40
2022/04/21 13:58:14;;;;;;;10.20;1.35;;;;;;;;;;5069919;28;20064;-42
2022/04/21 14:00:45;;;;;;;2.83;1.08;;;;;;;;;;5070405;28;20028;-39
2022/04/21 14:03:12;;;;;;;17.33;2.30;;;;;;;;;;5070944;28;20036;-35
2022/04/21 14:05:40;;;;;;;7.15;1.50;;;;;;;;;;5070402;28;20035;-38
2022/04/21 14:08:08;;;;;;;13.95;1.88;;;;;;;;;;5069782;28;20028;-41
2022/04/21 14:10:35;;;;;;;7.88;1.90;;;;;;;;;;5070793;28;20110;-38
2022/04/21 14:13:03;;;;;;;11.18;1.83;;;;;;;;;;5074245;28;20032;-36
2022/04/21 14:15:30;;;;;;;9.23;1.65;;;;;;;;;;5074061;28;20029;-40
2022/04/21 14:17:57;;;;;;;6.53;2.00;;;;;;;;;;5074210;28;20111;-38
2022/04/21 14:20:24;;;;;;;12.40;1.88;;;;;;;;;;5073818;28;20083;-37
2022/04/21 14:22:51;;;;;;;8.25;1.92;;;;;;;;;;5076370;28;20036;-41
2022/04/21 14:25:19;;;;;;;6.43;1.75;;;;;;;;;;5083759;28;20040;-39
2022/04/21 14:27:46;;;;;;;5.68;1.67;;;;;;;;;;5082884;28;20031;-39
2022/04/21 14:30:13;;;;;;;7.13;1.55;;;;;;;;;;5080932;28;20036;-39
2022/04/21 14:32:41;;;;;;;9.07;1.40;;;;;;;;;;5081962;28;20034;-41
2022/04/21 14:35:08;;;;;;;10.05;1.67;;;;;;;;;;5082338;28;20036;-41
2022/04/21 14:45:58;;;;;;;2.90;1.17;;;;;;;;;;5078611;28;20146;-38
2022/04/21 14:48:25;;;;;;;19.73;2.03;;;;;;;;;;5073719;28;20032;-36
2022/04/21 14:50:52;;;;;;;11.75;2.28;;;;;;;;;;5072699;28;20037;-38
2022/04/21 14:53:22;;;;;;;9.70;1.88;;;;;;;;;;5073651;28;20389;-37
2022/04/21 14:55:49;;;;;;;11.38;1.90;;;;;;;;;;5073460;28;20044;-40
2022/04/21 14:58:18;;;;;;;14.90;2.17;;;;;;;;;;5073164;28;20060;-40
2022/04/21 15:00:45;;;;;;;13.48;2.13;;;;;;;;;;5072700;28;20502;-40
2022/04/21 15:03:13;;;;;;;9.00;1.98;;;;;;;;;;5073114;28;20024;-40
2022/04/21 15:05:42;;;;;;;10.52;1.95;;;;;;;;;;5073150;28;20036;-37
2022/04/21 15:08:09;;;;;;;12.88;2.08;;;;;;;;;;5073154;28;20470;-40
2022/04/21 15:10:39;;;;;;;7.97;2.13;;;;;;;;;;5073200;28;20466;-39
2022/04/21 15:13:10;;;;;;;12.70;2.80;;;;;;;;;;5072048;28;20067;-39
2022/04/21 15:15:37;;;;;;;9.85;3.00;;;;;;;;;;5072760;28;20386;-38
2022/04/21 15:18:04;;;;;;;11.18;3.25;;;;;;;;;;5073215;28;20040;-39
2022/04/21 15:20:32;;;;;;;9.88;2.95;;;;;;;;;;5080220;28;20040;-36
2022/04/21 15:22:59;;;;;;;14.88;4.18;;;;;;;;;;5087809;28;20032;-38
2022/04/21 15:25:27;;;;;;;18.80;4.05;;;;;;;;;;5073053;28;20087;-40
2022/04/21 15:27:57;;;;;;;23.05;4.18;;;;;;;;;;5075064;28;20043;-39
2022/04/21 15:30:25;;;;;;;16.50;3.92;;;;;;;;;;5084101;28;20033;-38
2022/04/21 15:32:52;;;;;;;14.77;3.83;;;;;;;;;;5083278;28;20039;-39
2022/04/21 15:35:20;;;;;;;22.48;3.90;;;;;;;;;;5083656;28;20059;-40
2022/04/21 15:37:49;;;;;;;18.92;3.47;;;;;;;;;;5082381;28;20036;-40
2022/04/21 15:40:16;;;;;;;22.95;6.00;;;;;;;;;;5072307;28;20463;-37
2022/04/21 15:42:43;;;;;;;28.02;5.32;;;;;;;;;;5073913;28;20039;-36
2022/04/21 15:45:10;;;;;;;32.60;6.30;;;;;;;;;;5078802;28;20032;-37
2022/04/21 15:47:37;;;;;;;27.30;5.90;;;;;;;;;;5088242;28;20028;-37
2022/04/21 15:50:05;;;;;;;25.00;6.35;;;;;;;;;;5073164;28;20490;-37
2022/04/21 15:52:33;;;;;;;31.73;6.47;;;;;;;;;;5072412;28;20043;-38